Time;durP1;ratioP1;P1;durP2;ratioP2;P2;SDS_P1;SDS_P2;PMS_P1;PMS_P2;Temp;Humidity;BMP_temperature;BMP_pressure;BME280_temperature;BME280_humidity;BME280_pressure;Samples;Min_cycle;Max_cycle;Signal;HPM_P1;HPM_P2
2022/05/06 00:01:29;;;;;;;;;;;12.90;43.30;;;;;;5058863;28;20327;-89
2022/05/06 00:03:54;;;;;;;;;;;12.90;43.30;;;;;;5059632;28;19916;-89
2022/05/06 00:06:22;;;;;;;;;;;12.90;43.30;;;;;;5058808;28;19912;-88
2022/05/06 00:08:48;;;;;;;;;;;12.90;43.20;;;;;;5058920;28;19942;-89
2022/05/06 00:11:13;;;;;;;;;;;12.90;43.30;;;;;;5077503;28;20348;-90
2022/05/06 00:13:39;;;;;;;;;;;12.80;43.40;;;;;;5077107;28;20322;-90
2022/05/06 00:16:04;;;;;;;;;;;12.80;43.30;;;;;;5076287;28;19916;-90
2022/05/06 00:18:31;;;;;;;;;;;12.80;43.20;;;;;;5058600;28;19916;-90
2022/05/06 00:21:00;;;;;;;;;;;12.80;43.20;;;;;;5058572;28;19966;-90
2022/05/06 00:23:25;;;;;;;;;;;12.80;43.30;;;;;;5057436;28;19923;-90
2022/05/06 00:25:50;;;;;;;;;;;12.70;43.40;;;;;;5058514;28;19916;-89
2022/05/06 00:28:16;;;;;;;;;;;12.70;43.50;;;;;;5076963;28;19916;-89
2022/05/06 00:30:44;;;;;;;;;;;12.60;43.80;;;;;;5058454;28;19916;-89
2022/05/06 00:33:10;;;;;;;;;;;12.60;44.00;;;;;;5076569;28;20303;-89
2022/05/06 00:35:36;;;;;;;;;;;12.60;44.00;;;;;;5059961;28;19917;-90
2022/05/06 00:38:02;;;;;;;;;;;12.50;44.10;;;;;;5064029;28;20054;-89
2022/05/06 00:40:28;;;;;;;;;;;12.50;44.10;;;;;;5075173;28;20048;-89
2022/05/06 00:42:55;;;;;;;;;;;12.50;44.00;;;;;;5075454;28;19913;-90
2022/05/06 00:45:21;;;;;;;;;;;12.40;44.00;;;;;;5071705;28;20046;-89
2022/05/06 00:47:46;;;;;;;;;;;12.40;43.90;;;;;;5063293;28;20344;-89
2022/05/06 00:50:12;;;;;;;;;;;12.30;44.00;;;;;;5056718;28;20364;-90
2022/05/06 00:52:37;;;;;;;;;;;12.30;44.10;;;;;;5068421;28;20049;-89
2022/05/06 00:55:04;;;;;;;;;;;12.30;44.10;;;;;;5062810;28;19970;-89
2022/05/06 00:57:30;;;;;;;;;;;12.30;44.20;;;;;;5072884;28;19965;-89
2022/05/06 01:02:40;;;;;;;;;;;12.20;44.20;;;;;;5065428;28;20636;-89
2022/05/06 01:05:07;;;;;;;;;;;12.20;44.30;;;;;;5055695;28;19955;-91
2022/05/06 01:07:33;;;;;;;;;;;12.20;44.30;;;;;;5041573;28;19946;-89
2022/05/06 01:09:59;;;;;;;;;;;12.20;44.20;;;;;;5061438;28;19917;-89
2022/05/06 01:12:24;;;;;;;;;;;12.10;44.30;;;;;;5059405;28;19920;-89
2022/05/06 01:14:50;;;;;;;;;;;12.10;44.20;;;;;;5076010;28;19920;-90
2022/05/06 01:17:16;;;;;;;;;;;12.10;44.30;;;;;;5056996;28;19916;-89
2022/05/06 01:19:42;;;;;;;;;;;12.00;44.20;;;;;;5058652;28;19923;-90
2022/05/06 01:22:07;;;;;;;;;;;12.10;44.30;;;;;;5073702;28;19917;-90
2022/05/06 01:24:33;;;;;;;;;;;12.00;44.20;;;;;;5073176;28;19917;-89
2022/05/06 01:27:03;;;;;;;;;;;12.00;44.50;;;;;;5058377;28;19912;-90
2022/05/06 01:29:31;;;;;;;;;;;11.90;44.60;;;;;;5054823;28;20302;-89
2022/05/06 01:31:56;;;;;;;;;;;11.90;44.70;;;;;;5057454;28;19912;-89
2022/05/06 01:34:23;;;;;;;;;;;11.90;44.70;;;;;;5075080;28;19974;-89
2022/05/06 01:36:50;;;;;;;;;;;11.80;44.70;;;;;;5058037;28;19991;-89
2022/05/06 01:39:18;;;;;;;;;;;11.80;44.90;;;;;;5056459;28;20007;-90
2022/05/06 01:41:45;;;;;;;;;;;11.80;44.90;;;;;;5067402;28;19912;-89
2022/05/06 01:44:14;;;;;;;;;;;11.80;44.90;;;;;;5066239;28;20283;-89
2022/05/06 01:46:39;;;;;;;;;;;11.70;44.90;;;;;;5057790;28;19962;-89
2022/05/06 01:49:06;;;;;;;;;;;11.70;44.90;;;;;;5075123;28;19916;-89
2022/05/06 01:51:33;;;;;;;;;;;11.70;45.00;;;;;;5070226;28;19916;-89
2022/05/06 01:53:59;;;;;;;;;;;11.70;45.00;;;;;;5069625;28;20268;-90
2022/05/06 01:56:24;;;;;;;;;;;11.70;45.00;;;;;;5057914;28;19919;-89
2022/05/06 01:58:50;;;;;;;;;;;11.60;45.00;;;;;;5074406;28;19916;-89
2022/05/06 02:01:15;;;;;;;;;;;11.60;45.00;;;;;;5057065;28;20367;-89
2022/05/06 02:06:25;;;;;;;;;;;11.50;45.00;;;;;;5073907;28;20447;-89
2022/05/06 02:08:50;;;;;;;;;;;11.50;45.10;;;;;;5075166;28;20032;-90
2022/05/06 02:11:16;;;;;;;;;;;11.50;45.30;;;;;;5061752;28;20287;-91
2022/05/06 02:13:42;;;;;;;;;;;11.40;45.50;;;;;;5065071;28;20376;-89
2022/05/06 02:16:07;;;;;;;;;;;11.40;45.70;;;;;;5060969;28;19917;-89
2022/05/06 02:18:33;;;;;;;;;;;11.40;46.00;;;;;;5072818;28;19916;-89
2022/05/06 02:20:59;;;;;;;;;;;11.40;46.00;;;;;;5070248;28;19944;-89
2022/05/06 02:23:25;;;;;;;;;;;11.30;46.00;;;;;;5060545;28;20379;-88
2022/05/06 02:25:50;;;;;;;;;;;11.30;46.10;;;;;;5063439;28;19912;-89
2022/05/06 02:28:16;;;;;;;;;;;11.20;46.20;;;;;;5063605;28;19932;-91
2022/05/06 02:33:27;;;;;;;;;;;11.20;46.20;;;;;;5076235;28;20270;-91
2022/05/06 02:35:53;;;;;;;;;;;11.10;46.30;;;;;;5079281;28;19920;-91
2022/05/06 02:38:20;;;;;;;;;;;11.10;46.30;;;;;;5080156;28;19995;-91
2022/05/06 02:40:46;;;;;;;;;;;11.10;46.40;;;;;;5060191;28;20245;-89
2022/05/06 02:43:11;;;;;;;;;;;11.00;46.30;;;;;;5065636;28;19962;-89
2022/05/06 02:45:37;;;;;;;;;;;11.00;46.30;;;;;;5060082;28;19928;-88
2022/05/06 02:48:03;;;;;;;;;;;11.00;46.20;;;;;;5059917;28;19912;-90
2022/05/06 02:50:28;;;;;;;;;;;11.00;46.30;;;;;;5059942;28;19921;-89
2022/05/06 02:52:54;;;;;;;;;;;11.00;46.20;;;;;;5066036;28;20420;-91
2022/05/06 02:55:20;;;;;;;;;;;10.90;46.50;;;;;;5073374;28;20296;-90
2022/05/06 02:57:45;;;;;;;;;;;10.90;46.40;;;;;;5079373;28;20253;-91
2022/05/06 03:00:11;;;;;;;;;;;10.90;46.40;;;;;;5076097;28;19927;-92
2022/05/06 03:02:37;;;;;;;;;;;10.90;46.60;;;;;;5069949;28;19920;-90
2022/05/06 03:05:03;;;;;;;;;;;10.90;46.60;;;;;;5078656;28;20000;-89
2022/05/06 03:07:28;;;;;;;;;;;10.80;46.60;;;;;;5073626;28;20280;-90
2022/05/06 03:09:54;;;;;;;;;;;10.80;46.60;;;;;;5063795;28;19920;-90
2022/05/06 03:12:20;;;;;;;;;;;10.80;46.60;;;;;;5070587;28;20333;-88
2022/05/06 03:14:46;;;;;;;;;;;10.70;46.80;;;;;;5066871;28;20367;-89
2022/05/06 03:17:11;;;;;;;;;;;10.70;46.90;;;;;;5057513;28;19916;-89
2022/05/06 03:19:37;;;;;;;;;;;10.70;46.90;;;;;;5060477;28;19938;-89
2022/05/06 03:22:02;;;;;;;;;;;10.60;47.00;;;;;;5068388;28;19924;-88
2022/05/06 03:24:28;;;;;;;;;;;10.60;47.00;;;;;;5076439;28;20312;-90
2022/05/06 03:26:54;;;;;;;;;;;10.60;47.00;;;;;;5078305;28;19924;-90
2022/05/06 03:29:20;;;;;;;;;;;10.60;46.90;;;;;;5058928;28;19923;-90
2022/05/06 03:31:45;;;;;;;;;;;10.50;47.00;;;;;;5058802;28;20003;-89
2022/05/06 03:34:11;;;;;;;;;;;10.60;47.10;;;;;;5058222;28;19984;-90
2022/05/06 03:36:37;;;;;;;;;;;10.50;47.10;;;;;;5052383;28;19924;-90
2022/05/06 03:39:03;;;;;;;;;;;10.60;47.20;;;;;;5066162;28;19977;-90
2022/05/06 03:41:29;;;;;;;;;;;10.50;47.20;;;;;;5060469;28;19917;-90
2022/05/06 03:43:54;;;;;;;;;;;10.50;47.30;;;;;;5050871;28;19919;-90
2022/05/06 03:46:20;;;;;;;;;;;10.60;47.30;;;;;;5064200;28;19951;-89
2022/05/06 03:48:45;;;;;;;;;;;10.50;47.30;;;;;;5065089;28;19912;-90
2022/05/06 03:51:23;;;;;;;;;;;10.50;47.20;;;;;;5069407;28;19917;-91
2022/05/06 03:53:53;;;;;;;;;;;10.60;47.20;;;;;;5067745;28;19916;-89
2022/05/06 03:56:22;;;;;;;;;;;10.60;47.30;;;;;;5059159;28;19920;-89
2022/05/06 03:58:48;;;;;;;;;;;10.60;47.30;;;;;;5058601;28;19913;-91
2022/05/06 04:01:14;;;;;;;;;;;10.60;47.50;;;;;;5070653;28;19917;-88
2022/05/06 04:03:39;;;;;;;;;;;10.70;47.70;;;;;;5054712;28;19920;-90
2022/05/06 04:06:05;;;;;;;;;;;10.70;47.90;;;;;;5071643;28;19917;-88
2022/05/06 04:08:32;;;;;;;;;;;10.90;48.10;;;;;;5077197;28;19912;-88
2022/05/06 04:10:57;;;;;;;;;;;10.90;48.30;;;;;;5075927;28;19920;-89
2022/05/06 04:13:23;;;;;;;;;;;11.10;48.50;;;;;;5072564;28;20340;-89
2022/05/06 04:15:50;;;;;;;;;;;11.20;48.80;;;;;;5057947;28;19920;-90
2022/05/06 04:18:15;;;;;;;;;;;11.40;49.20;;;;;;5063842;28;20064;-89
2022/05/06 04:23:32;;;;;;;;;;;11.90;49.70;;;;;;5071271;28;19920;-90
2022/05/06 04:25:58;;;;;;;;;;;12.10;50.00;;;;;;5075099;28;19928;-91
2022/05/06 04:28:25;;;;;;;;;;;12.50;50.10;;;;;;5047511;28;19939;-90
2022/05/06 04:30:53;;;;;;;;;;;12.80;50.30;;;;;;5070839;28;19917;-91
2022/05/06 04:33:22;;;;;;;;;;;13.10;50.30;;;;;;5075328;28;20014;-91
2022/05/06 04:35:48;;;;;;;;;;;13.50;50.40;;;;;;5076201;28;19920;-90
2022/05/06 04:38:13;;;;;;;;;;;13.80;50.30;;;;;;5077106;28;19966;-89
2022/05/06 04:40:40;;;;;;;;;;;14.10;50.20;;;;;;5059209;28;19931;-90
2022/05/06 04:43:06;;;;;;;;;;;14.50;50.00;;;;;;5058376;28;19912;-90
2022/05/06 04:45:31;;;;;;;;;;;14.80;49.80;;;;;;5058629;28;19923;-91
2022/05/06 04:47:57;;;;;;;;;;;15.20;49.70;;;;;;5059318;28;19920;-91
2022/05/06 04:50:23;;;;;;;;;;;15.50;49.50;;;;;;5076539;28;19913;-91
2022/05/06 04:52:49;;;;;;;;;;;15.80;49.30;;;;;;5058701;28;19924;-91
2022/05/06 04:55:15;;;;;;;;;;;16.20;49.20;;;;;;5058716;28;19920;-91
2022/05/06 04:57:40;;;;;;;;;;;16.60;48.90;;;;;;5058283;28;19920;-91
2022/05/06 05:00:06;;;;;;;;;;;17.00;48.70;;;;;;5058044;28;19919;-91
2022/05/06 05:02:32;;;;;;;;;;;17.40;48.40;;;;;;5056290;28;19952;-91
2022/05/06 05:04:58;;;;;;;;;;;17.80;48.00;;;;;;5064401;28;20338;-92
2022/05/06 05:07:24;;;;;;;;;;;18.20;47.80;;;;;;5076167;28;19927;-92
2022/05/06 05:09:50;;;;;;;;;;;18.70;47.40;;;;;;5059803;28;20010;-91
2022/05/06 05:12:15;;;;;;;;;;;19.10;46.90;;;;;;5058126;28;19931;-91
2022/05/06 05:14:44;;;;;;;;;;;19.40;46.30;;;;;;5057397;28;20383;-87
2022/05/06 05:17:09;;;;;;;;;;;19.90;45.60;;;;;;5055383;28;19951;-87
2022/05/06 05:19:35;;;;;;;;;;;20.30;45.10;;;;;;5072676;28;19912;-87
2022/05/06 05:22:01;;;;;;;;;;;20.70;44.70;;;;;;5053289;28;19978;-88
2022/05/06 05:24:26;;;;;;;;;;;21.20;44.40;;;;;;5056594;28;19990;-87
2022/05/06 05:26:54;;;;;;;;;;;21.60;44.20;;;;;;5071293;28;19913;-86
2022/05/06 05:29:19;;;;;;;;;;;22.00;43.90;;;;;;5070978;28;19928;-87
2022/05/06 05:31:45;;;;;;;;;;;22.40;43.20;;;;;;5054024;28;19916;-87
2022/05/06 05:34:10;;;;;;;;;;;22.90;42.70;;;;;;5057136;28;19930;-87
2022/05/06 05:36:36;;;;;;;;;;;23.30;41.80;;;;;;5066960;28;19921;-87
2022/05/06 05:39:01;;;;;;;;;;;23.80;41.00;;;;;;5069976;28;19923;-89
2022/05/06 05:41:27;;;;;;;;;;;24.20;39.90;;;;;;5071348;28;19920;-87
2022/05/06 05:49:21;;;;;;;;;;;25.50;37.80;;;;;;5051721;28;19924;-87
2022/05/06 05:51:47;;;;;;;;;;;26.00;37.00;;;;;;5048426;28;19997;-87
2022/05/06 05:54:15;;;;;;;;;;;26.40;35.50;;;;;;5052021;28;20371;-87
2022/05/06 05:56:41;;;;;;;;;;;26.80;34.80;;;;;;5086344;28;19912;-88
2022/05/06 05:59:06;;;;;;;;;;;27.30;34.00;;;;;;5092324;28;19927;-87
2022/05/06 06:01:32;;;;;;;;;;;27.60;33.20;;;;;;5060439;28;20000;-87
2022/05/06 06:03:57;;;;;;;;;;;27.90;32.00;;;;;;5053934;28;20296;-88
2022/05/06 06:06:23;;;;;;;;;;;28.30;31.60;;;;;;5053834;28;19968;-87
2022/05/06 06:08:48;;;;;;;;;;;28.60;31.20;;;;;;5071147;28;20015;-88
2022/05/06 06:11:13;;;;;;;;;;;28.80;30.50;;;;;;5081758;28;19959;-88
2022/05/06 06:13:39;;;;;;;;;;;29.20;30.20;;;;;;5092148;28;19924;-88
2022/05/06 06:16:04;;;;;;;;;;;29.50;29.90;;;;;;5082822;28;19951;-87
2022/05/06 06:18:30;;;;;;;;;;;29.80;29.40;;;;;;5053294;28;19916;-88
2022/05/06 06:20:56;;;;;;;;;;;30.10;28.70;;;;;;5053376;28;20150;-88
2022/05/06 06:23:22;;;;;;;;;;;30.40;28.70;;;;;;5071705;28;19916;-88
2022/05/06 06:25:47;;;;;;;;;;;30.80;28.10;;;;;;5071665;28;20339;-88
2022/05/06 06:28:13;;;;;;;;;;;31.10;27.60;;;;;;5071452;28;19913;-88
2022/05/06 06:30:38;;;;;;;;;;;31.50;27.10;;;;;;5071744;28;19912;-88
2022/05/06 06:33:04;;;;;;;;;;;31.90;26.80;;;;;;5071284;28;19999;-88
2022/05/06 06:35:29;;;;;;;;;;;32.30;26.70;;;;;;5076048;28;20024;-88
2022/05/06 06:37:54;;;;;;;;;;;32.70;25.90;;;;;;5092355;28;19909;-86
2022/05/06 06:40:21;;;;;;;;;;;33.00;25.60;;;;;;5070829;28;20011;-88
2022/05/06 06:42:46;;;;;;;;;;;33.30;25.10;;;;;;5053637;28;19919;-88
2022/05/06 06:45:12;;;;;;;;;;;33.70;24.70;;;;;;5054159;28;20360;-88
2022/05/06 06:47:37;;;;;;;;;;;34.00;24.00;;;;;;5072548;28;19913;-89
2022/05/06 06:50:03;;;;;;;;;;;34.20;23.60;;;;;;5053981;28;19908;-86
2022/05/06 06:52:29;;;;;;;;;;;34.50;23.40;;;;;;5053767;28;19916;-86
2022/05/06 06:54:56;;;;;;;;;;;34.70;22.90;;;;;;5071146;28;19924;-87
2022/05/06 06:57:21;;;;;;;;;;;34.90;22.60;;;;;;5091971;28;19912;-88
2022/05/06 06:59:47;;;;;;;;;;;35.20;22.30;;;;;;5073832;28;19912;-87
2022/05/06 07:02:12;;;;;;;;;;;35.40;22.00;;;;;;5092664;28;20414;-87
2022/05/06 07:04:38;;;;;;;;;;;35.70;21.80;;;;;;5092552;28;19922;-88
2022/05/06 07:12:31;;;;;;;;;;;36.40;20.90;;;;;;5055848;28;19923;-88
2022/05/06 07:14:57;;;;;;;;;;;36.80;20.50;;;;;;5054093;28;20431;-87
2022/05/06 07:17:23;;;;;;;;;;;37.00;20.10;;;;;;5055401;28;19920;-88
2022/05/06 07:19:48;;;;;;;;;;;37.20;19.60;;;;;;5053982;28;19998;-87
2022/05/06 07:22:14;;;;;;;;;;;37.50;19.40;;;;;;5057077;28;19924;-87
2022/05/06 07:24:40;;;;;;;;;;;37.80;19.30;;;;;;5075162;28;20019;-87
2022/05/06 07:27:07;;;;;;;;;;;38.10;19.00;;;;;;5039244;28;19920;-86
2022/05/06 07:29:32;;;;;;;;;;;38.30;18.60;;;;;;5056119;28;19908;-86
2022/05/06 07:31:58;;;;;;;;;;;38.40;18.50;;;;;;5074416;28;19961;-87
2022/05/06 07:34:23;;;;;;;;;;;38.60;18.30;;;;;;5081838;28;19923;-87
2022/05/06 07:36:49;;;;;;;;;;;38.80;17.90;;;;;;5073980;28;19928;-87
2022/05/06 07:39:15;;;;;;;;;;;39.00;17.80;;;;;;5056880;28;19979;-87
2022/05/06 07:41:41;;;;;;;;;;;39.10;17.80;;;;;;5075795;28;19916;-85
2022/05/06 07:44:07;;;;;;;;;;;39.40;17.80;;;;;;5057214;28;20272;-88
2022/05/06 07:46:33;;;;;;;;;;;39.70;17.40;;;;;;5075003;28;19923;-87
2022/05/06 07:48:59;;;;;;;;;;;40.00;17.20;;;;;;5056551;28;20249;-88
2022/05/06 07:51:24;;;;;;;;;;;40.20;17.10;;;;;;5054014;28;19944;-88
2022/05/06 07:53:52;;;;;;;;;;;40.40;16.80;;;;;;5055734;28;19923;-88
2022/05/06 07:56:21;;;;;;;;;;;40.70;16.90;;;;;;5066807;28;19927;-87
2022/05/06 07:58:47;;;;;;;;;;;41.00;16.60;;;;;;5057071;28;20428;-88
2022/05/06 08:01:13;;;;;;;;;;;41.30;16.30;;;;;;5056361;28;19914;-88
2022/05/06 08:06:23;;;;;;;;;;;41.50;14.20;;;;;;5075565;28;19923;-88
2022/05/06 08:08:48;;;;;;;;;;;41.40;13.80;;;;;;5056425;28;19912;-87
2022/05/06 08:11:13;;;;;;;;;;;41.30;13.40;;;;;;5055818;28;19916;-88
2022/05/06 08:13:39;;;;;;;;;;;41.00;12.90;;;;;;5055950;28;19955;-87
2022/05/06 08:16:04;;;;;;;;;;;40.80;13.20;;;;;;5065040;28;19916;-87
2022/05/06 08:18:30;;;;;;;;;;;40.90;13.60;;;;;;5093064;28;19999;-87
2022/05/06 08:20:55;;;;;;;;;;;41.10;13.90;;;;;;5086616;28;19913;-87
2022/05/06 08:23:22;;;;;;;;;;;41.20;13.20;;;;;;5056649;28;19928;-88
2022/05/06 08:25:48;;;;;;;;;;;41.30;13.00;;;;;;5056101;28;19912;-88
2022/05/06 08:28:14;;;;;;;;;;;41.20;12.90;;;;;;5056098;28;19934;-87
2022/05/06 08:30:40;;;;;;;;;;;41.20;13.00;;;;;;5078957;28;19912;-87
2022/05/06 08:33:05;;;;;;;;;;;41.10;12.90;;;;;;5069935;28;19935;-87
2022/05/06 08:35:31;;;;;;;;;;;41.00;12.80;;;;;;5074583;28;20272;-88
2022/05/06 08:37:58;;;;;;;;;;;40.90;13.00;;;;;;5057065;28;19917;-88
2022/05/06 08:40:25;;;;;;;;;;;41.00;13.00;;;;;;5056507;28;19999;-88
2022/05/06 08:42:51;;;;;;;;;;;41.20;13.10;;;;;;5056856;28;19913;-88
2022/05/06 08:50:52;;;;;;;;;;;41.60;13.20;;;;;;5074946;28;20399;-88
2022/05/06 08:53:22;;;;;;;;;;;41.80;13.10;;;;;;5056669;28;20703;-88
2022/05/06 08:55:51;;;;;;;;;;;41.90;12.80;;;;;;5056318;28;19920;-88
2022/05/06 08:58:17;;;;;;;;;;;42.10;13.00;;;;;;5074407;28;19913;-89
2022/05/06 09:00:42;;;;;;;;;;;42.30;12.90;;;;;;5056164;28;19927;-88
2022/05/06 09:03:08;;;;;;;;;;;42.40;12.90;;;;;;5056159;28;19912;-87
2022/05/06 09:05:46;;;;;;;;;;;42.70;12.90;;;;;;5076259;28;19916;-88
2022/05/06 09:08:12;;;;;;;;;;;42.80;12.90;;;;;;5056292;28;20620;-88
2022/05/06 09:10:38;;;;;;;;;;;43.10;12.80;;;;;;5073457;28;19917;-88
2022/05/06 09:13:03;;;;;;;;;;;43.20;12.70;;;;;;5056956;28;19912;-87
2022/05/06 09:18:17;;;;;;;;;;;43.70;12.80;;;;;;5074344;28;19990;-88
2022/05/06 09:20:43;;;;;;;;;;;43.90;12.70;;;;;;5079775;28;20007;-88
2022/05/06 09:23:24;;;;;;;;;;;44.00;12.10;;;;;;5075952;28;19954;-88
2022/05/06 09:25:50;;;;;;;;;;;44.00;12.30;;;;;;5087197;28;20327;-88
2022/05/06 09:28:23;;;;;;;;;;;44.20;12.30;;;;;;5055631;28;19915;-88
2022/05/06 09:31:04;;;;;;;;;;;44.30;12.30;;;;;;5055157;28;20374;-88
2022/05/06 09:33:31;;;;;;;;;;;44.20;12.30;;;;;;5055591;28;20430;-88
2022/05/06 09:35:56;;;;;;;;;;;44.10;12.30;;;;;;5055425;28;20283;-88
2022/05/06 09:38:24;;;;;;;;;;;44.10;12.20;;;;;;5056466;28;19908;-88
2022/05/06 09:40:50;;;;;;;;;;;44.20;12.40;;;;;;5072903;28;19917;-88
2022/05/06 09:43:17;;;;;;;;;;;44.20;12.40;;;;;;5073636;28;20000;-88
2022/05/06 09:45:44;;;;;;;;;;;44.20;12.40;;;;;;5073599;28;20322;-87
2022/05/06 09:48:11;;;;;;;;;;;44.20;12.40;;;;;;5072764;28;19958;-87
2022/05/06 09:50:39;;;;;;;;;;;44.30;12.40;;;;;;5054593;28;19920;-89
2022/05/06 09:53:07;;;;;;;;;;;44.50;12.30;;;;;;5072617;28;19912;-89
2022/05/06 09:55:34;;;;;;;;;;;44.70;12.30;;;;;;5054559;28;19951;-88
2022/05/06 09:57:59;;;;;;;;;;;44.90;12.10;;;;;;5073053;28;19913;-89
2022/05/06 10:00:29;;;;;;;;;;;45.20;12.10;;;;;;5077005;28;19912;-89
2022/05/06 10:02:55;;;;;;;;;;;45.30;11.60;;;;;;5075669;28;20272;-89
2022/05/06 10:05:21;;;;;;;;;;;45.40;11.60;;;;;;5072253;28;19923;-89
2022/05/06 10:07:46;;;;;;;;;;;45.40;11.00;;;;;;5073238;28;19912;-88
2022/05/06 10:10:17;;;;;;;;;;;45.30;11.00;;;;;;5054658;28;19908;-88
2022/05/06 10:12:44;;;;;;;;;;;45.00;11.00;;;;;;5055850;28;19959;-88
2022/05/06 10:15:11;;;;;;;;;;;44.80;11.30;;;;;;5073530;28;19923;-89
2022/05/06 10:17:52;;;;;;;;;;;44.80;11.50;;;;;;5055472;28;19974;-88
2022/05/06 10:20:47;;;;;;;;;;;44.80;10.70;;;;;;5054892;28;20268;-88
2022/05/06 10:23:15;;;;;;;;;;;44.60;10.90;;;;;;5073436;28;19913;-88
2022/05/06 10:25:40;;;;;;;;;;;44.50;11.10;;;;;;5055303;28;19912;-88
2022/05/06 10:34:11;;;;;;;;;;;44.30;11.50;;;;;;5072870;28;19923;-88
2022/05/06 10:36:42;;;;;;;;;;;44.50;11.70;;;;;;5072072;28;19924;-88
2022/05/06 10:39:23;;;;;;;;;;;44.40;11.50;;;;;;5072895;28;19913;-88
2022/05/06 10:42:00;;;;;;;;;;;44.30;11.80;;;;;;5057704;28;19927;-88
2022/05/06 10:44:36;;;;;;;;;;;44.50;11.70;;;;;;5076941;28;20023;-88
2022/05/06 10:47:03;;;;;;;;;;;44.80;11.70;;;;;;5058837;28;19955;-88
2022/05/06 10:49:34;;;;;;;;;;;45.00;11.80;;;;;;5076590;28;19916;-88
2022/05/06 10:52:15;;;;;;;;;;;45.40;11.70;;;;;;5074921;28;19913;-88
2022/05/06 10:54:47;;;;;;;;;;;45.70;11.50;;;;;;5078334;28;20011;-88
2022/05/06 10:57:13;;;;;;;;;;;45.80;11.30;;;;;;5096942;28;19916;-88
2022/05/06 10:59:48;;;;;;;;;;;45.70;11.10;;;;;;5097077;28;20351;-89
2022/05/06 11:02:13;;;;;;;;;;;45.50;11.20;;;;;;5059864;28;19920;-88
2022/05/06 11:04:40;;;;;;;;;;;45.50;11.00;;;;;;5057536;28;19931;-88
2022/05/06 11:07:13;;;;;;;;;;;45.60;11.10;;;;;;5058210;28;20647;-89
2022/05/06 11:09:38;;;;;;;;;;;45.70;11.10;;;;;;5057490;28;20287;-87
2022/05/06 11:12:04;;;;;;;;;;;45.40;10.80;;;;;;5057122;28;19913;-88
2022/05/06 11:14:30;;;;;;;;;;;44.80;11.00;;;;;;5075708;28;19921;-87
2022/05/06 11:17:18;;;;;;;;;;;44.70;10.90;;;;;;5075380;28;19928;-88
2022/05/06 11:19:43;;;;;;;;;;;44.30;10.90;;;;;;5057274;28;19920;-87
2022/05/06 11:22:12;;;;;;;;;;;44.00;11.10;;;;;;5057635;28;19919;-89
2022/05/06 11:24:37;;;;;;;;;;;43.80;11.30;;;;;;5075311;28;20294;-88
2022/05/06 11:27:12;;;;;;;;;;;43.60;11.40;;;;;;5037743;28;19923;-88
2022/05/06 11:29:48;;;;;;;;;;;42.70;11.50;;;;;;5054012;28;19917;-88
2022/05/06 11:32:14;;;;;;;;;;;42.10;11.90;;;;;;5056834;28;19920;-88
2022/05/06 11:34:45;;;;;;;;;;;41.70;12.20;;;;;;5057198;28;19929;-88
2022/05/06 11:37:11;;;;;;;;;;;41.40;12.20;;;;;;5057411;28;19923;-88
2022/05/06 11:39:37;;;;;;;;;;;40.60;12.60;;;;;;5073977;28;20431;-88
2022/05/06 11:42:17;;;;;;;;;;;40.10;13.00;;;;;;5057522;28;19970;-88
2022/05/06 11:47:36;;;;;;;;;;;38.90;13.50;;;;;;5032604;28;20325;-86
2022/05/06 11:50:02;;;;;;;;;;;38.10;13.80;;;;;;5038371;28;19928;-87
2022/05/06 11:52:27;;;;;;;;;;;37.70;14.20;;;;;;5082804;28;19916;-89
2022/05/06 11:54:53;;;;;;;;;;;38.00;14.40;;;;;;5057849;28;19954;-88
2022/05/06 11:57:18;;;;;;;;;;;38.70;14.20;;;;;;5058015;28;19955;-89
2022/05/06 11:59:44;;;;;;;;;;;39.30;13.70;;;;;;5077090;28;19913;-87
2022/05/06 12:02:11;;;;;;;;;;;39.70;13.80;;;;;;5058068;28;19912;-86
2022/05/06 12:04:37;;;;;;;;;;;40.10;13.70;;;;;;5075843;28;19920;-86
2022/05/06 12:07:03;;;;;;;;;;;40.50;13.70;;;;;;5054307;28;20335;-86
2022/05/06 12:09:29;;;;;;;;;;;40.50;13.50;;;;;;5064534;28;19917;-91
2022/05/06 12:12:07;;;;;;;;;;;39.90;13.70;;;;;;5061987;28;19971;-88
2022/05/06 12:14:32;;;;;;;;;;;39.30;14.10;;;;;;5058472;28;19921;-88
2022/05/06 12:16:59;;;;;;;;;;;38.70;14.50;;;;;;5075632;28;19913;-87
2022/05/06 12:19:57;;;;;;;;;;;38.30;14.70;;;;;;5076882;28;19920;-88
2022/05/06 12:22:25;;;;;;;;;;;37.70;14.90;;;;;;5051415;28;19919;-86
2022/05/06 12:24:55;;;;;;;;;;;37.00;15.40;;;;;;5076194;28;19916;-86
2022/05/06 12:27:23;;;;;;;;;;;36.50;15.50;;;;;;5057227;28;20007;-87
2022/05/06 12:29:49;;;;;;;;;;;36.00;15.90;;;;;;5054235;28;20536;-87
2022/05/06 12:32:14;;;;;;;;;;;35.50;16.20;;;;;;5055976;28;19912;-87
2022/05/06 12:34:40;;;;;;;;;;;35.20;16.50;;;;;;5072858;28;19920;-87
2022/05/06 12:37:12;;;;;;;;;;;34.90;16.60;;;;;;5057210;28;19908;-88
2022/05/06 12:39:39;;;;;;;;;;;34.80;16.60;;;;;;5075488;28;19989;-87
2022/05/06 12:42:31;;;;;;;;;;;35.30;16.50;;;;;;5058099;28;19972;-89
2022/05/06 12:45:02;;;;;;;;;;;36.30;15.90;;;;;;5056100;28;19923;-87
2022/05/06 12:50:15;;;;;;;;;;;38.20;14.80;;;;;;5075827;28;19985;-87
2022/05/06 12:52:42;;;;;;;;;;;38.80;14.60;;;;;;5077116;28;19962;-87
2022/05/06 12:55:07;;;;;;;;;;;39.10;14.10;;;;;;5082221;28;19928;-87
2022/05/06 12:57:33;;;;;;;;;;;38.90;14.10;;;;;;5074541;28;20311;-87
2022/05/06 12:59:58;;;;;;;;;;;38.50;14.40;;;;;;5057233;28;19920;-87
2022/05/06 13:02:24;;;;;;;;;;;38.50;14.40;;;;;;5056161;28;19920;-86
2022/05/06 13:04:49;;;;;;;;;;;38.10;14.50;;;;;;5056317;28;19923;-87
2022/05/06 13:07:15;;;;;;;;;;;37.70;14.40;;;;;;5056927;28;19917;-87
2022/05/06 13:09:41;;;;;;;;;;;37.20;14.80;;;;;;5073919;28;19969;-86
2022/05/06 13:12:08;;;;;;;;;;;36.70;15.30;;;;;;5074454;28;19971;-87
2022/05/06 13:14:35;;;;;;;;;;;36.20;15.60;;;;;;5075524;28;19920;-88
2022/05/06 13:17:02;;;;;;;;;;;35.70;15.90;;;;;;5057210;28;20249;-87
2022/05/06 13:19:29;;;;;;;;;;;35.30;16.40;;;;;;5057667;28;19935;-87
2022/05/06 13:21:55;;;;;;;;;;;35.20;16.80;;;;;;5072335;28;19993;-88
2022/05/06 13:24:22;;;;;;;;;;;35.50;16.80;;;;;;5058710;28;19916;-86
2022/05/06 13:26:47;;;;;;;;;;;36.00;16.60;;;;;;5057448;28;19959;-87
2022/05/06 13:29:13;;;;;;;;;;;36.80;16.20;;;;;;5056823;28;19920;-87
2022/05/06 13:31:39;;;;;;;;;;;37.60;15.60;;;;;;5074984;28;19917;-87
2022/05/06 13:34:04;;;;;;;;;;;38.20;15.40;;;;;;5057376;28;19927;-88
2022/05/06 13:36:31;;;;;;;;;;;38.80;15.10;;;;;;5056963;28;19963;-89
2022/05/06 13:38:58;;;;;;;;;;;39.30;14.80;;;;;;5073652;28;19916;-88
2022/05/06 13:41:24;;;;;;;;;;;38.80;14.90;;;;;;5053508;28;19969;-90
2022/05/06 13:43:49;;;;;;;;;;;38.60;15.10;;;;;;5054343;28;19920;-89
2022/05/06 13:46:15;;;;;;;;;;;39.10;14.80;;;;;;5053776;28;19955;-88
2022/05/06 13:48:42;;;;;;;;;;;39.50;14.70;;;;;;5054607;28;20387;-88
2022/05/06 13:51:07;;;;;;;;;;;39.70;14.50;;;;;;5062342;28;19920;-86
2022/05/06 13:53:34;;;;;;;;;;;39.20;14.60;;;;;;5055846;28;19912;-89
2022/05/06 13:59:04;;;;;;;;;;;38.70;15.00;;;;;;5074737;28;19920;-87
2022/05/06 14:01:29;;;;;;;;;;;38.40;15.00;;;;;;5073166;28;20352;-86
2022/05/06 14:03:55;;;;;;;;;;;37.60;15.10;;;;;;5072361;28;19957;-87
2022/05/06 14:06:20;;;;;;;;;;;36.80;15.70;;;;;;5072062;28;19925;-86
2022/05/06 14:08:46;;;;;;;;;;;36.40;16.00;;;;;;5072303;28;19909;-87
2022/05/06 14:11:11;;;;;;;;;;;36.00;16.40;;;;;;5054815;28;20002;-87
2022/05/06 14:13:37;;;;;;;;;;;35.80;16.70;;;;;;5053511;28;20306;-87
2022/05/06 14:16:03;;;;;;;;;;;35.40;17.00;;;;;;5051537;28;19920;-87
2022/05/06 14:18:28;;;;;;;;;;;35.20;17.10;;;;;;5056760;28;19916;-88
2022/05/06 14:20:54;;;;;;;;;;;35.00;17.40;;;;;;5067859;28;19920;-88
2022/05/06 14:23:19;;;;;;;;;;;34.80;17.40;;;;;;5075836;28;19923;-89
2022/05/06 14:25:45;;;;;;;;;;;34.60;17.60;;;;;;5075251;28;20417;-87
2022/05/06 14:28:12;;;;;;;;;;;34.40;17.70;;;;;;5075387;28;20405;-88
2022/05/06 14:30:40;;;;;;;;;;;34.10;17.90;;;;;;5074968;28;19997;-88
2022/05/06 14:33:06;;;;;;;;;;;33.80;18.20;;;;;;5075175;28;19923;-88
2022/05/06 14:35:33;;;;;;;;;;;33.70;18.30;;;;;;5084216;28;20360;-87
2022/05/06 14:37:59;;;;;;;;;;;33.50;18.50;;;;;;5077654;28;19947;-87
2022/05/06 14:40:25;;;;;;;;;;;33.30;18.80;;;;;;5087572;28;19920;-88
2022/05/06 14:42:51;;;;;;;;;;;33.30;19.00;;;;;;5075370;28;20382;-89
2022/05/06 14:45:16;;;;;;;;;;;33.30;19.10;;;;;;5074603;28;19976;-88
2022/05/06 14:47:42;;;;;;;;;;;33.30;19.10;;;;;;5056997;28;19920;-87
2022/05/06 14:50:08;;;;;;;;;;;33.30;19.20;;;;;;5056446;28;19920;-87
2022/05/06 14:52:34;;;;;;;;;;;33.30;19.20;;;;;;5057645;28;20391;-87
2022/05/06 14:55:03;;;;;;;;;;;33.40;19.30;;;;;;5057599;28;19939;-88
2022/05/06 14:57:28;;;;;;;;;;;33.50;19.20;;;;;;5058437;28;19923;-88
2022/05/06 14:59:54;;;;;;;;;;;33.60;19.20;;;;;;5075131;28;19916;-88
2022/05/06 15:02:19;;;;;;;;;;;33.80;19.10;;;;;;5074423;28;19924;-87